createdAt,value
2023-04-19T00:00:10.504Z,25.4
2023-04-19T00:05:48.939Z,25.2
2023-04-19T00:11:25.661Z,25
2023-04-19T00:17:01.338Z,25.3
2023-04-19T00:22:37.164Z,29.9
2023-04-19T00:28:29.214Z,26.5
2023-04-19T00:34:05.591Z,25.7
2023-04-19T00:39:56.570Z,25.4
2023-04-19T00:45:33.205Z,25.3
2023-04-19T00:51:09.464Z,25
2023-04-19T00:56:46.111Z,24.9
2023-04-19T01:02:23.374Z,29.9
2023-04-19T01:08:16.389Z,26.6
2023-04-19T01:13:54.782Z,25.8
2023-04-19T01:19:46.751Z,25.5
2023-04-19T01:25:22.117Z,25.3
2023-04-19T01:31:13.570Z,25.1
2023-04-19T01:36:50.365Z,24.8
2023-04-19T01:42:10.684Z,28.3
2023-04-19T01:48:02.398Z,27.8
2023-04-19T01:52:52.477Z,25.9
2023-04-19T01:58:44.109Z,25.6
2023-04-19T02:04:37.259Z,25.4
2023-04-19T02:10:29.604Z,25.2
2023-04-19T02:16:21.085Z,24.9
2023-04-19T02:21:57.869Z,25.4
2023-04-19T02:27:49.516Z,29.9
2023-04-19T02:33:10.647Z,26.5
2023-04-19T02:38:47.430Z,25.8
2023-04-19T02:44:08.432Z,25.5
2023-04-19T02:49:59.711Z,25.3
2023-04-19T02:55:50.879Z,25.1
2023-04-19T03:01:42.228Z,24.9
2023-04-19T03:06:48.240Z,28.8
2023-04-19T03:12:40.125Z,27.4
2023-04-19T03:18:17.184Z,26
2023-04-19T03:23:38.004Z,25.6
2023-04-19T03:29:29.523Z,25.4
2023-04-19T03:34:52.288Z,25.2
2023-04-19T03:40:28.554Z,25
2023-04-19T03:45:49.953Z,26.6
2023-04-19T03:51:26.172Z,30.2
2023-04-19T03:57:18.223Z,26.4
2023-04-19T04:03:12.518Z,25.8
2023-04-19T04:09:07.849Z,25.5
2023-04-19T04:14:59.624Z,25.3
2023-04-19T04:20:37.351Z,25.1
2023-04-19T04:26:13.859Z,24.6
2023-04-19T04:31:35.975Z,29.4
2023-04-19T04:37:15.040Z,27
2023-04-19T04:43:01.608Z,26
2023-04-19T04:49:06.085Z,25.6
2023-04-19T04:54:58.036Z,25.4
2023-04-19T05:00:49.715Z,25.2
2023-04-19T05:06:26.728Z,24.9
2023-04-19T05:12:02.538Z,25
2023-04-19T05:17:40.249Z,29.7
2023-04-19T05:23:16.808Z,26.6
2023-04-19T05:28:40.196Z,25.8
2023-04-19T05:34:36.161Z,25.4
2023-04-19T05:40:13.980Z,25.2
2023-04-19T05:45:53.227Z,24.9
2023-04-19T05:51:29.972Z,24.7
2023-04-19T05:57:06.311Z,27.7
2023-04-19T06:02:42.780Z,28.1
2023-04-19T06:08:45.286Z,26.1
2023-04-19T06:14:52.607Z,25.6
2023-04-19T06:20:31.350Z,25.4
2023-04-19T06:34:10.998Z,24.4
2023-04-19T06:39:47.950Z,29.8
2023-04-19T06:45:25.014Z,26.7
2023-04-19T06:51:02.024Z,26.1
2023-04-19T06:56:39.193Z,25.8
2023-04-19T07:02:15.907Z,25.4
2023-04-19T07:07:53.896Z,25.1
2023-04-19T07:13:47.955Z,24.8
2023-04-19T07:19:24.523Z,24.6
2023-04-19T07:25:01.917Z,26.6
2023-04-19T07:30:08.144Z,29.8
2023-04-19T07:35:45.403Z,26.6
2023-04-19T07:41:22.097Z,26
2023-04-19T07:46:59.158Z,25.7
2023-04-19T07:52:35.718Z,25.4
2023-04-19T07:58:12.065Z,25.1
2023-04-19T08:04:01.845Z,24.9
2023-04-19T08:09:41.097Z,24.6
2023-04-19T08:17:21.843Z,28.3
2023-04-19T08:23:18.465Z,26.9
2023-04-19T08:29:11.400Z,26.1
2023-04-19T08:35:06.595Z,25.8
2023-04-19T08:41:12.596Z,25.4
2023-04-19T08:47:48.498Z,25.1
2023-04-19T08:54:20.075Z,24.8
2023-04-19T09:00:41.773Z,24.6
2023-04-19T09:07:14.615Z,30.1
2023-04-19T09:13:04.418Z,26.5
2023-04-19T09:19:11.731Z,25.9
2023-04-19T09:32:24.853Z,25.3
2023-04-19T09:38:55.594Z,25
2023-04-19T09:45:52.542Z,24.7
2023-04-19T09:52:20.510Z,27
2023-04-19T09:58:07.951Z,28.3
2023-04-19T10:05:32.576Z,26.1
2023-04-19T10:13:07.359Z,25.6
2023-04-19T10:19:28.391Z,25.3
2023-04-19T10:25:21.121Z,25
2023-04-19T10:30:41.347Z,24.7
2023-04-19T10:36:19.836Z,24.5
2023-04-19T10:42:11.030Z,24.3
2023-04-19T10:47:48.934Z,24.1
2023-04-19T10:53:24.900Z,23.8
2023-04-19T10:59:04.850Z,23.6
2023-04-19T11:04:45.222Z,23.4
2023-04-19T11:10:39.581Z,23.3
2023-04-19T11:16:17.750Z,23.1
2023-04-19T11:22:35.414Z,22.9
2023-04-19T11:28:27.189Z,22.8
2023-04-19T11:34:20.904Z,22.6
2023-04-19T11:40:13.379Z,22.5
2023-04-19T11:46:02.068Z,22.4
2023-04-19T11:51:40.624Z,22.3
2023-04-19T11:57:33.774Z,22.1
2023-04-19T12:02:55.021Z,22
2023-04-19T12:08:03.908Z,21.9
2023-04-19T12:13:40.945Z,21.8
2023-04-19T12:19:35.945Z,21.8
2023-04-19T12:25:30.345Z,21.7
2023-04-19T12:32:43.607Z,21.6
2023-04-19T12:38:35.370Z,21.5
2023-04-19T12:44:12.072Z,21.4
2023-04-19T12:50:04.865Z,21.4
2023-04-19T12:58:23.380Z,21.3
2023-04-19T13:04:17.617Z,21.3
2023-04-19T13:10:23.784Z,21.3
2023-04-19T13:16:15.184Z,21.2
2023-04-19T13:27:28.774Z,21.1
2023-04-19T13:33:19.436Z,21.1
2023-04-19T13:39:11.714Z,21
2023-04-19T13:45:21.370Z,20.9
2023-04-19T13:51:13.988Z,20.9
2023-04-19T13:57:08.755Z,20.9
2023-04-19T14:03:01.872Z,20.9
2023-04-19T14:08:55.173Z,20.8
2023-04-19T14:14:48.792Z,20.8
2023-04-19T14:20:09.889Z,20.8
2023-04-19T14:26:01.494Z,20.8
2023-04-19T14:32:23.934Z,20.8
2023-04-19T14:38:02.296Z,20.7
2023-04-19T14:43:54.487Z,20.6
2023-04-19T14:49:47.757Z,20.6
2023-04-19T14:55:39.632Z,20.6
2023-04-19T15:01:31.659Z,20.6
2023-04-19T15:07:11.388Z,20.6
2023-04-19T15:13:09.482Z,20.6
2023-04-19T15:19:04.014Z,20.6
2023-04-19T15:24:43.030Z,20.5
2023-04-19T15:30:19.847Z,20.5
2023-04-19T15:36:12.121Z,20.5
2023-04-19T15:42:04.407Z,20.4
2023-04-19T15:47:43.808Z,20.4
2023-04-19T15:53:35.326Z,20.4
2023-04-19T15:59:14.176Z,20.4
2023-04-19T16:05:11.542Z,20.4
2023-04-19T16:10:47.945Z,20.4
2023-04-19T16:16:39.868Z,20.4
2023-04-19T16:22:17.137Z,20.4
2023-04-19T16:28:08.946Z,20.4
2023-04-19T16:33:48.306Z,20.4
2023-04-19T16:39:09.036Z,20.4
2023-04-19T16:44:30.130Z,20.3
2023-04-19T16:49:36.474Z,20.3
2023-04-19T16:55:15.580Z,20.3
2023-04-19T17:00:36.327Z,20.3
2023-04-19T17:06:16.068Z,20.3
2023-04-19T17:11:52.690Z,20.3
2023-04-19T17:17:13.768Z,20.3
2023-04-19T17:22:35.113Z,20.3
2023-04-19T17:28:11.634Z,20.3
2023-04-19T17:33:48.565Z,20.3
2023-04-19T17:39:25.246Z,20.3
2023-04-19T17:45:01.844Z,20.2
2023-04-19T17:50:40.563Z,20.2
2023-04-19T17:56:16.820Z,20.2
2023-04-19T18:01:38.631Z,20.2
2023-04-19T18:07:31.894Z,20.2
2023-04-19T18:13:09.084Z,20.2
2023-04-19T18:18:45.678Z,20.2
2023-04-19T18:24:38.017Z,20.1
2023-04-19T18:30:16.493Z,20.1
2023-04-19T18:35:54.430Z,20.1
2023-04-19T18:41:46.579Z,20.1
2023-04-19T18:48:06.489Z,20.1
2023-04-19T18:53:56.130Z,20.1
2023-04-19T19:00:13.220Z,20.1
2023-04-19T19:06:49.357Z,20.1
2023-04-19T19:13:56.862Z,20.1
2023-04-19T19:20:10.877Z,20.1
2023-04-19T19:26:04.250Z,20.1
2023-04-19T19:32:05.542Z,23.3
2023-04-19T19:38:12.507Z,28.9
2023-04-19T19:51:59.527Z,25.5
2023-04-19T19:58:48.020Z,25
2023-04-19T20:05:50.577Z,28.9
2023-04-19T20:13:03.622Z,26.6
2023-04-19T20:18:39.685Z,25.5
2023-04-19T20:24:32.013Z,25.2
2023-04-19T20:30:23.605Z,25.1
2023-04-19T20:36:15.022Z,28.5
2023-04-19T20:41:52.057Z,27.9
2023-04-19T20:47:43.370Z,25.8
2023-04-19T20:53:33.823Z,25.4
2023-04-19T20:59:26.454Z,25.1
2023-04-19T21:05:20.369Z,24.9
2023-04-19T21:11:12.127Z,28.8
2023-04-19T21:16:49.366Z,27.4
2023-04-19T21:22:41.769Z,25.8
2023-04-19T21:28:32.326Z,25.4
2023-04-19T21:34:09.317Z,25.2
2023-04-19T21:40:01.032Z,25
2023-04-19T21:45:51.041Z,27
2023-04-19T21:51:43.418Z,29.6
2023-04-19T21:57:50.140Z,26.1
2023-04-19T22:03:43.447Z,25.4
2023-04-19T22:09:37.658Z,25.3
2023-04-19T22:15:41.510Z,25
2023-04-19T22:21:32.485Z,24.5
2023-04-19T22:27:40.224Z,29.4
2023-04-19T22:33:31.281Z,26.6
2023-04-19T22:39:22.052Z,25.6
2023-04-19T22:44:42.401Z,25.3
2023-04-19T22:50:04.136Z,25.2
2023-04-19T22:55:24.212Z,24.9
2023-04-19T23:01:00.012Z,24.2
2023-04-19T23:06:37.220Z,29.4
2023-04-19T23:12:12.642Z,26.7
2023-04-19T23:17:49.215Z,25.6
2023-04-19T23:23:41.069Z,25.3
2023-04-19T23:29:34.747Z,25.1
2023-04-19T23:35:26.584Z,24.9
2023-04-19T23:41:02.210Z,25.1
2023-04-19T23:46:55.334Z,29.9
2023-04-19T23:52:47.050Z,26.3
2023-04-19T23:58:38.057Z,25.5
